To NAV CANADA Home Page Login to a new session Search on AWWS site Disclaimer Vers la page française équivalente Tips FAQ What's new on the site To the Forecasts and Observations / NOTAM section To "File a Flight Plan" website Publications and other links Update of the User's profile FIC Telephone Numbers My Weather Data Folder Route Weather Data Regional Weather Data Local Weather Data To the Forecasts and Observations / NOTAM section
Request Generated 10/21/2018 at 05:51:24 UTC . Weather information available at that time is displayed.

METAR/TAF

PRINCE RUPERT/BC    (show WxCam)

METAR CYPR 210500Z AUTO 06007KT 9SM CLR 08/07 A3021 RMK SLP232=
METAR CYPR 210400Z AUTO 07007KT 9SM BKN150 09/07 A3021 RMK SLP233=
METAR CYPR 210300Z AUTO 07008KT 9SM CLR 09/08 A3022 RMK SLP236=

TAF CYPR 210038Z 2101/2113 VRB03KT P6SM FEW006 SCT040
FM210900 09006KT P6SM FEW040 SCT160
RMK FCST BASED ON AUTO OBS. NXT FCST BY 210700Z=
Your time UTC time
Weather data provided by Environment Canada and NAV CANADA